createdAt,value
2019-05-11T00:00:27.727Z,94.27
2019-05-11T00:01:27.719Z,94.58
2019-05-11T00:02:27.730Z,94.68
2019-05-11T00:03:27.695Z,94.48
2019-05-11T00:04:27.684Z,94.52
2019-05-11T00:05:27.672Z,94.21
2019-05-11T00:06:27.688Z,93.96
2019-05-11T00:07:27.651Z,94.58
2019-05-11T00:08:27.661Z,94.58
2019-05-11T00:09:27.631Z,94.48
2019-05-11T00:10:27.627Z,93.55
2019-05-11T00:11:27.621Z,93.76
2019-05-11T00:12:27.630Z,93.76
2019-05-11T00:13:27.614Z,93.66
2019-05-11T00:14:27.574Z,93.76
2019-05-11T00:15:27.567Z,94.27
2019-05-11T00:16:27.560Z,94.27
2019-05-11T00:17:27.548Z,94.27
2019-05-11T00:18:27.535Z,94.27
2019-05-11T00:19:27.549Z,94.37
2019-05-11T00:20:27.582Z,93.45
2019-05-11T00:21:27.501Z,93.55
2019-05-11T00:22:27.492Z,93.35
2019-05-11T00:23:27.488Z,93.35
2019-05-11T00:24:29.573Z,93.66
2019-05-11T00:25:27.460Z,93.66
2019-05-11T00:26:27.533Z,93.04
2019-05-11T00:27:27.439Z,93.35
2019-05-11T00:28:27.431Z,93.45
2019-05-11T00:29:27.438Z,93.04
2019-05-11T00:30:27.445Z,93.00
2019-05-11T00:31:27.403Z,93.35
2019-05-11T00:32:27.391Z,93.35
2019-05-11T00:33:27.389Z,93.15
2019-05-11T00:34:27.412Z,93.45
2019-05-11T00:35:27.369Z,93.55
2019-05-11T00:36:27.357Z,93.20
2019-05-11T00:37:27.351Z,92.83
2019-05-11T00:38:27.331Z,93.25
2019-05-11T00:39:27.335Z,93.15
2019-05-11T00:40:27.329Z,93.76
2019-05-11T00:41:27.321Z,93.35
2019-05-11T00:42:27.301Z,93.66
2019-05-11T00:43:27.269Z,93.55
2019-05-11T00:44:27.269Z,93.96
2019-05-11T00:45:27.295Z,93.76
2019-05-11T00:46:27.269Z,94.07
2019-05-11T00:47:27.230Z,93.35
2019-05-11T00:48:27.220Z,93.15
2019-05-11T00:49:27.209Z,92.94
2019-05-11T00:50:38.911Z,93.15
2019-05-11T00:51:28.183Z,93.25
2019-05-11T00:52:27.175Z,93.04
2019-05-11T00:53:27.161Z,93.15
2019-05-11T00:54:27.164Z,93.15
2019-05-11T00:55:27.171Z,92.74
2019-05-11T00:56:27.128Z,92.63
2019-05-11T00:57:27.138Z,93.04
2019-05-11T00:58:27.112Z,92.59
2019-05-11T00:59:27.095Z,92.94
2019-05-11T01:00:27.120Z,93.35
2019-05-11T01:01:27.103Z,93.04
2019-05-11T01:02:27.064Z,92.83
2019-05-11T01:03:27.060Z,93.04
2019-05-11T01:04:27.083Z,93.25
2019-05-11T01:05:27.059Z,92.94
2019-05-11T01:06:27.464Z,93.04
2019-05-11T01:07:27.022Z,93.55
2019-05-11T01:08:27.023Z,93.66
2019-05-11T01:09:35.562Z,93.04
2019-05-11T01:10:41.205Z,93.96
2019-05-11T01:11:27.988Z,94.37
2019-05-11T01:12:26.961Z,94.17
2019-05-11T01:13:26.938Z,94.27
2019-05-11T01:14:26.947Z,94.48
2019-05-11T01:15:26.939Z,94.27
2019-05-11T01:16:27.485Z,94.48
2019-05-11T01:17:26.895Z,94.17
2019-05-11T01:18:26.887Z,94.62
2019-05-11T01:19:26.889Z,95.40
2019-05-11T01:20:26.872Z,95.24
2019-05-11T01:21:26.886Z,95.24
2019-05-11T01:22:26.848Z,95.34
2019-05-11T01:23:26.850Z,95.65
2019-05-11T01:24:26.835Z,95.34
2019-05-11T01:25:26.820Z,94.62
2019-05-11T01:26:26.860Z,95.24
2019-05-11T01:27:26.803Z,95.03
2019-05-11T01:28:26.783Z,95.24
2019-05-11T01:29:26.775Z,94.83
2019-05-11T01:30:26.792Z,94.42
2019-05-11T01:31:26.753Z,93.70
2019-05-11T01:32:26.768Z,93.55
2019-05-11T01:33:26.741Z,94.17
2019-05-11T01:34:26.759Z,94.17
2019-05-11T01:35:26.741Z,94.93
2019-05-11T01:36:26.702Z,94.78
2019-05-11T01:37:26.706Z,95.09
2019-05-11T01:38:26.692Z,94.93
2019-05-11T01:39:26.674Z,94.37
2019-05-11T01:40:26.668Z,94.32
2019-05-11T01:41:26.662Z,94.78
2019-05-11T01:42:26.654Z,94.48
2019-05-11T01:43:26.630Z,94.62
2019-05-11T01:44:26.614Z,95.14
2019-05-11T01:45:26.601Z,95.24
2019-05-11T01:46:26.607Z,95.61
2019-05-11T01:47:26.605Z,96.47
2019-05-11T01:48:26.578Z,96.37
2019-05-11T01:49:26.618Z,95.95
2019-05-11T01:50:26.564Z,95.86
2019-05-11T01:51:26.555Z,95.44
2019-05-11T01:52:26.582Z,95.65
2019-05-11T01:53:26.511Z,95.34
2019-05-11T01:54:26.513Z,94.42
2019-05-11T01:55:26.496Z,95.24
2019-05-11T01:56:26.503Z,95.54
2019-05-11T01:57:26.484Z,95.34
2019-05-11T01:58:26.484Z,95.54
2019-05-11T01:59:26.456Z,95.75
2019-05-11T02:00:26.439Z,96.16
2019-05-11T02:01:26.431Z,95.95
2019-05-11T02:02:26.429Z,96.06
2019-05-11T02:03:26.448Z,96.37
2019-05-11T02:04:26.399Z,96.26
2019-05-11T02:05:26.394Z,96.06
2019-05-11T02:06:26.375Z,96.16
2019-05-11T02:07:26.391Z,95.95
2019-05-11T02:08:26.375Z,96.16
2019-05-11T02:09:26.344Z,96.47
2019-05-11T02:10:26.335Z,96.67
2019-05-11T02:11:26.332Z,96.47
2019-05-11T02:12:26.331Z,96.16
2019-05-11T02:13:26.315Z,96.16
2019-05-11T02:14:26.293Z,96.26
2019-05-11T02:15:26.292Z,96.37
2019-05-11T02:16:26.275Z,96.78
2019-05-11T02:17:26.272Z,96.78
2019-05-11T02:18:26.526Z,96.57
2019-05-11T02:19:26.254Z,96.88
2019-05-11T02:20:26.261Z,96.26
2019-05-11T02:21:26.218Z,96.67
2019-05-11T02:22:26.205Z,96.26
2019-05-11T02:23:26.186Z,96.57
2019-05-11T02:24:26.205Z,96.06
2019-05-11T02:25:26.212Z,95.34
2019-05-11T02:26:26.163Z,95.54
2019-05-11T02:27:26.165Z,95.44
2019-05-11T02:28:26.135Z,95.34
2019-05-11T02:29:26.150Z,95.34
2019-05-11T02:30:26.156Z,95.44
2019-05-11T02:31:26.113Z,95.14
2019-05-11T02:32:26.101Z,95.75
2019-05-11T02:33:26.085Z,95.54
2019-05-11T02:34:26.110Z,95.65
2019-05-11T02:35:26.096Z,95.54
2019-05-11T02:36:26.080Z,95.14
2019-05-11T02:37:26.048Z,95.65
2019-05-11T02:38:26.030Z,95.34
2019-05-11T02:39:26.070Z,95.24
2019-05-11T02:40:26.020Z,95.24
2019-05-11T02:41:36.396Z,95.24
2019-05-11T02:42:27.026Z,95.34
2019-05-11T02:43:26.023Z,95.14
2019-05-11T02:44:25.996Z,95.03
2019-05-11T02:45:25.981Z,95.34
2019-05-11T02:46:25.947Z,95.44
2019-05-11T02:47:25.939Z,95.34
2019-05-11T02:48:25.923Z,94.93
2019-05-11T02:49:28.166Z,95.44
2019-05-11T02:50:25.920Z,95.24
2019-05-11T02:51:25.897Z,94.73
2019-05-11T02:52:25.888Z,94.83
2019-05-11T02:53:25.872Z,94.62
2019-05-11T02:54:25.864Z,95.14
2019-05-11T02:55:25.869Z,95.24
2019-05-11T02:56:25.845Z,95.24
2019-05-11T02:57:25.849Z,95.54
2019-05-11T02:58:25.822Z,95.34
2019-05-11T02:59:29.677Z,95.24
2019-05-11T03:00:25.815Z,95.44
2019-05-11T03:01:25.799Z,95.14
2019-05-11T03:02:25.782Z,95.03
2019-05-11T03:03:25.868Z,95.03
2019-05-11T03:04:25.751Z,95.03
2019-05-11T03:05:25.775Z,94.42
2019-05-11T03:06:25.743Z,94.73
2019-05-11T03:07:25.725Z,95.03
2019-05-11T03:08:25.721Z,95.34
2019-05-11T03:09:25.704Z,95.54
2019-05-11T03:10:25.723Z,95.75
2019-05-11T03:11:25.684Z,95.75
2019-05-11T03:12:25.668Z,95.75
2019-05-11T03:13:25.659Z,95.75
2019-05-11T03:14:25.696Z,95.75
2019-05-11T03:15:33.210Z,95.54
2019-05-11T03:16:25.617Z,95.54
2019-05-11T03:17:25.614Z,95.24
2019-05-11T03:18:25.609Z,95.14
2019-05-11T03:19:25.589Z,95.14
2019-05-11T03:20:25.577Z,95.24
2019-05-11T03:21:25.587Z,95.24
2019-05-11T03:22:25.563Z,95.34
2019-05-11T03:23:25.543Z,95.14
2019-05-11T03:24:25.536Z,95.65
2019-05-11T03:25:25.556Z,94.73
2019-05-11T03:26:25.530Z,95.34
2019-05-11T03:27:25.500Z,95.44
2019-05-11T03:28:25.497Z,94.83
2019-05-11T03:29:25.481Z,94.83
2019-05-11T03:30:25.480Z,94.52
2019-05-11T03:31:25.505Z,94.73
2019-05-11T03:32:25.453Z,94.62
2019-05-11T03:33:25.500Z,94.32
2019-05-11T03:34:25.425Z,94.21
2019-05-11T03:35:25.449Z,94.73
2019-05-11T03:36:25.424Z,94.83
2019-05-11T03:37:25.405Z,94.87
2019-05-11T03:38:25.384Z,95.39
2019-05-11T03:39:25.372Z,95.44
2019-05-11T03:40:25.363Z,95.69
2019-05-11T03:41:25.370Z,95.79
2019-05-11T03:42:25.389Z,96.10
2019-05-11T03:43:25.345Z,96.51
2019-05-11T03:44:25.318Z,96.51
2019-05-11T03:45:25.307Z,96.41
2019-05-11T03:46:25.299Z,96.25
2019-05-11T03:47:25.353Z,95.74
2019-05-11T03:48:25.414Z,95.79
2019-05-11T03:49:25.264Z,95.59
2019-05-11T03:50:25.256Z,95.79
2019-05-11T03:51:25.252Z,95.39
2019-05-11T03:52:25.230Z,95.90
2019-05-11T03:53:25.241Z,95.49
2019-05-11T03:54:25.214Z,95.64
2019-05-11T03:55:25.203Z,95.18
2019-05-11T03:56:25.195Z,95.18
2019-05-11T03:57:25.179Z,95.18
2019-05-11T03:58:26.579Z,95.07
2019-05-11T03:59:25.168Z,95.28
2019-05-11T04:00:25.149Z,95.18
2019-05-11T04:01:25.133Z,95.28
2019-05-11T04:02:25.123Z,95.18
2019-05-11T04:03:25.114Z,94.98
2019-05-11T04:04:25.123Z,95.28
2019-05-11T04:05:25.099Z,95.18
2019-05-11T04:06:25.097Z,95.69
2019-05-11T04:07:25.103Z,95.69
2019-05-11T04:08:25.059Z,96.20
2019-05-11T04:09:25.072Z,95.90
2019-05-11T04:10:25.751Z,96.10
2019-05-11T04:11:25.036Z,96.25
2019-05-11T04:12:34.577Z,95.79
2019-05-11T04:13:26.031Z,96.72
2019-05-11T04:14:25.004Z,96.51
2019-05-11T04:15:25.010Z,96.41
2019-05-11T04:16:24.984Z,96.20
2019-05-11T04:17:24.969Z,96.45
2019-05-11T04:18:24.956Z,96.51
2019-05-11T04:19:24.944Z,96.31
2019-05-11T04:20:24.979Z,96.66
2019-05-11T04:21:24.946Z,96.41
2019-05-11T04:22:24.908Z,96.51
2019-05-11T04:23:24.919Z,96.51
2019-05-11T04:24:24.893Z,96.10
2019-05-11T04:25:24.879Z,96.51
2019-05-11T04:26:24.895Z,96.82
2019-05-11T04:27:24.878Z,96.82
2019-05-11T04:28:24.861Z,96.92
2019-05-11T04:29:24.840Z,96.41
2019-05-11T04:30:24.824Z,96.51
2019-05-11T04:31:24.854Z,96.51
2019-05-11T04:32:24.826Z,96.31
2019-05-11T04:33:24.794Z,96.77
2019-05-11T04:34:24.788Z,96.10
2019-05-11T04:35:24.770Z,96.72
2019-05-11T04:36:24.762Z,96.31
2019-05-11T04:37:24.777Z,96.20
2019-05-11T04:38:24.742Z,96.51
2019-05-11T04:39:24.726Z,96.10
2019-05-11T04:40:24.721Z,96.72
2019-05-11T04:41:24.705Z,96.72
2019-05-11T04:42:24.725Z,96.25
2019-05-11T04:43:24.697Z,96.20
2019-05-11T04:44:24.675Z,96.82
2019-05-11T04:45:24.668Z,96.62
2019-05-11T04:46:24.652Z,96.41
2019-05-11T04:47:24.666Z,96.31
2019-05-11T04:48:24.631Z,96.31
2019-05-11T04:49:24.627Z,96.00
2019-05-11T04:50:24.614Z,96.20
2019-05-11T04:51:24.599Z,96.62
2019-05-11T04:52:24.587Z,96.82
2019-05-11T04:53:24.601Z,97.03
2019-05-11T04:54:24.577Z,97.13
2019-05-11T04:55:24.560Z,97.13
2019-05-11T04:56:24.553Z,97.44
2019-05-11T04:57:24.556Z,97.23
2019-05-11T04:58:24.542Z,97.13
2019-05-11T04:59:24.518Z,97.89
2019-05-11T05:00:24.506Z,97.54
2019-05-11T05:01:24.496Z,97.44
2019-05-11T05:02:27.187Z,97.23
2019-05-11T05:03:39.693Z,97.23
2019-05-11T05:04:25.460Z,97.33
2019-05-11T05:05:24.450Z,97.03
2019-05-11T05:06:24.761Z,97.33
2019-05-11T05:07:24.430Z,97.33
2019-05-11T05:08:26.479Z,97.23
2019-05-11T05:09:24.451Z,97.74
2019-05-11T05:10:24.392Z,97.64
2019-05-11T05:11:24.382Z,97.54
2019-05-11T05:12:24.380Z,96.92
2019-05-11T05:13:29.562Z,97.74
2019-05-11T05:14:25.370Z,97.44
2019-05-11T05:15:24.341Z,97.54
2019-05-11T05:16:24.327Z,97.74
2019-05-11T05:17:24.324Z,97.85
2019-05-11T05:18:24.314Z,97.64
2019-05-11T05:19:24.319Z,97.95
2019-05-11T05:20:24.299Z,97.95
2019-05-11T05:21:24.281Z,97.74
2019-05-11T05:22:27.724Z,97.74
2019-05-11T05:23:24.259Z,97.33
2019-05-11T05:24:24.268Z,96.92
2019-05-11T05:25:24.231Z,97.44
2019-05-11T05:26:24.222Z,97.44
2019-05-11T05:27:24.219Z,97.23
2019-05-11T05:28:24.200Z,97.33
2019-05-11T05:29:24.209Z,97.64
2019-05-11T05:30:24.181Z,96.98
2019-05-11T05:31:24.173Z,97.29
2019-05-11T05:32:24.159Z,96.78
2019-05-11T05:33:24.152Z,96.88
2019-05-11T05:34:24.155Z,96.88
2019-05-11T05:35:24.141Z,97.39
2019-05-11T05:36:24.120Z,97.08
2019-05-11T05:37:24.137Z,96.88
2019-05-11T05:38:24.094Z,97.60
2019-05-11T05:39:24.127Z,97.19
2019-05-11T05:40:24.076Z,97.49
2019-05-11T05:41:24.072Z,97.39
2019-05-11T05:42:24.054Z,97.39
2019-05-11T05:43:27.267Z,97.80
2019-05-11T05:44:27.445Z,97.74
2019-05-11T05:45:24.044Z,97.85
2019-05-11T05:46:24.006Z,97.64
2019-05-11T05:47:24.530Z,97.64
2019-05-11T05:48:23.990Z,97.74
2019-05-11T05:49:23.992Z,97.23
2019-05-11T05:50:23.963Z,97.64
2019-05-11T05:51:23.973Z,97.95
2019-05-11T05:52:23.942Z,97.95
2019-05-11T05:53:23.936Z,97.85
2019-05-11T05:54:23.928Z,97.33
2019-05-11T05:55:23.927Z,97.44
2019-05-11T05:56:23.918Z,97.74
2019-05-11T05:57:23.895Z,97.29
2019-05-11T05:58:23.904Z,97.60
2019-05-11T05:59:23.877Z,97.39
2019-05-11T06:00:23.865Z,97.49
2019-05-11T06:01:23.876Z,97.64
2019-05-11T06:02:23.837Z,97.74
2019-05-11T06:03:23.830Z,97.13
2019-05-11T06:04:23.815Z,97.54
2019-05-11T06:05:23.818Z,97.74
2019-05-11T06:06:23.796Z,97.03
2019-05-11T06:07:23.829Z,97.64
2019-05-11T06:08:23.779Z,97.54
2019-05-11T06:09:23.768Z,96.92
2019-05-11T06:10:23.751Z,97.74
2019-05-11T06:11:23.738Z,97.54
2019-05-11T06:12:23.772Z,97.74
2019-05-11T06:13:23.718Z,97.95
2019-05-11T06:14:23.712Z,97.85
2019-05-11T06:15:23.699Z,97.54
2019-05-11T06:16:23.685Z,97.80
2019-05-11T06:17:23.890Z,97.91
2019-05-11T06:18:23.683Z,97.80
2019-05-11T06:19:23.659Z,97.80
2019-05-11T06:20:23.642Z,97.91
2019-05-11T06:21:23.636Z,97.49
2019-05-11T06:22:23.623Z,97.29
2019-05-11T06:23:23.629Z,96.88
2019-05-11T06:24:23.603Z,97.60
2019-05-11T06:25:23.596Z,97.49
2019-05-11T06:26:23.589Z,97.49
2019-05-11T06:27:23.568Z,97.29
2019-05-11T06:28:23.582Z,97.39
2019-05-11T06:29:23.549Z,97.08
2019-05-11T06:30:23.549Z,97.08
2019-05-11T06:31:23.525Z,96.88
2019-05-11T06:32:23.516Z,96.37
2019-05-11T06:33:23.508Z,96.67
2019-05-11T06:34:23.511Z,96.78
2019-05-11T06:35:23.495Z,96.98
2019-05-11T06:36:23.474Z,96.47
2019-05-11T06:37:23.460Z,96.47
2019-05-11T06:38:23.449Z,96.88
2019-05-11T06:39:23.469Z,97.33
2019-05-11T06:40:23.430Z,97.19
2019-05-11T06:41:23.418Z,97.39
2019-05-11T06:42:23.408Z,97.29
2019-05-11T06:43:23.395Z,97.60
2019-05-11T06:44:23.384Z,97.60
2019-05-11T06:45:23.398Z,97.60
2019-05-11T06:46:23.366Z,97.60
2019-05-11T06:47:23.351Z,97.08
2019-05-11T06:48:23.348Z,97.29
2019-05-11T06:49:23.335Z,97.19
2019-05-11T06:50:23.342Z,97.19
2019-05-11T06:51:23.314Z,97.49
2019-05-11T06:52:23.307Z,97.60
2019-05-11T06:53:23.321Z,97.19
2019-05-11T06:54:23.286Z,97.08
2019-05-11T06:55:23.298Z,97.29
2019-05-11T06:56:23.263Z,97.55
2019-05-11T06:57:23.244Z,96.98
2019-05-11T06:58:23.232Z,97.19
2019-05-11T06:59:23.222Z,97.14
2019-05-11T07:00:23.276Z,97.70
2019-05-11T07:01:23.201Z,97.19
2019-05-11T07:02:23.190Z,96.94
2019-05-11T07:03:23.181Z,96.73
2019-05-11T07:04:23.172Z,96.83
2019-05-11T07:05:23.158Z,96.32
2019-05-11T07:06:26.874Z,96.42
2019-05-11T07:07:24.137Z,96.73
2019-05-11T07:08:23.132Z,96.63
2019-05-11T07:09:23.115Z,96.73
2019-05-11T07:10:23.146Z,96.73
2019-05-11T07:11:23.181Z,97.34
2019-05-11T07:12:23.083Z,96.83
2019-05-11T07:13:23.074Z,97.04
2019-05-11T07:14:23.064Z,96.53
2019-05-11T07:15:23.053Z,96.83
2019-05-11T07:16:23.071Z,96.22
2019-05-11T07:17:23.036Z,96.63
2019-05-11T07:18:23.019Z,96.53
2019-05-11T07:19:23.007Z,96.22
2019-05-11T07:20:22.996Z,96.32
2019-05-11T07:21:22.993Z,96.42
2019-05-11T07:22:22.997Z,96.22
2019-05-11T07:23:22.979Z,96.53
2019-05-11T07:24:22.955Z,96.83
2019-05-11T07:25:22.944Z,96.83
2019-05-11T07:26:22.934Z,97.24
2019-05-11T07:27:22.950Z,96.89
2019-05-11T07:28:22.910Z,96.94
2019-05-11T07:29:22.899Z,96.94
2019-05-11T07:30:22.890Z,97.04
2019-05-11T07:31:22.879Z,97.04
2019-05-11T07:32:25.942Z,96.89
2019-05-11T07:33:22.857Z,96.38
2019-05-11T07:34:22.844Z,96.89
2019-05-11T07:35:22.841Z,96.99
2019-05-11T07:36:22.824Z,97.04
2019-05-11T07:37:24.451Z,97.09
2019-05-11T07:38:22.848Z,96.69
2019-05-11T07:39:22.794Z,97.09
2019-05-11T07:40:22.781Z,96.69
2019-05-11T07:41:22.772Z,96.38
2019-05-11T07:42:22.761Z,96.69
2019-05-11T07:43:22.752Z,97.30
2019-05-11T07:44:35.002Z,96.79
2019-05-11T07:45:23.732Z,96.89
2019-05-11T07:46:22.717Z,97.40
2019-05-11T07:47:22.721Z,97.50
2019-05-11T07:48:22.695Z,97.20
2019-05-11T07:49:23.599Z,97.71
2019-05-11T07:50:22.676Z,96.79
2019-05-11T07:51:22.665Z,97.61
2019-05-11T07:52:22.652Z,97.09
2019-05-11T07:53:22.705Z,97.09
2019-05-11T07:54:22.688Z,97.09
2019-05-11T07:55:22.625Z,97.05
2019-05-11T07:56:22.609Z,96.95
2019-05-11T07:57:22.603Z,97.36
2019-05-11T07:58:22.589Z,97.25
2019-05-11T07:59:22.580Z,97.66
2019-05-11T08:00:22.595Z,97.87
2019-05-11T08:01:22.554Z,97.66
2019-05-11T08:02:22.546Z,97.56
2019-05-11T08:03:22.535Z,97.25
2019-05-11T08:04:22.522Z,97.15
2019-05-11T08:05:22.511Z,97.15
2019-05-11T08:06:22.522Z,97.36
2019-05-11T08:07:22.490Z,97.66
2019-05-11T08:08:25.077Z,97.56
2019-05-11T08:09:22.472Z,97.15
2019-05-11T08:10:22.458Z,97.36
2019-05-11T08:11:22.490Z,96.95
2019-05-11T08:12:22.436Z,97.05
2019-05-11T08:13:22.426Z,96.54
2019-05-11T08:14:22.417Z,97.05
2019-05-11T08:15:22.404Z,97.25
2019-05-11T08:16:22.395Z,97.15
2019-05-11T08:17:22.407Z,97.36
2019-05-11T08:18:22.373Z,97.05
2019-05-11T08:19:22.372Z,97.46
2019-05-11T08:20:22.352Z,97.15
2019-05-11T08:21:22.343Z,97.46
2019-05-11T08:22:23.099Z,97.11
2019-05-11T08:23:22.318Z,97.15
2019-05-11T08:24:22.321Z,97.05
2019-05-11T08:25:22.295Z,97.11
2019-05-11T08:26:22.286Z,97.41
2019-05-11T08:27:22.296Z,97.31
2019-05-11T08:28:22.274Z,97.41
2019-05-11T08:29:22.253Z,97.31
2019-05-11T08:30:22.242Z,97.11
2019-05-11T08:31:22.260Z,97.41
2019-05-11T08:32:22.221Z,97.21
2019-05-11T08:33:22.217Z,97.41
2019-05-11T08:34:22.203Z,97.31
2019-05-11T08:35:22.193Z,97.52
2019-05-11T08:36:22.180Z,97.11
2019-05-11T08:37:22.200Z,96.80
2019-05-11T08:38:22.156Z,96.91
2019-05-11T08:39:22.151Z,96.70
2019-05-11T08:40:22.148Z,97.21
2019-05-11T08:41:22.141Z,95.98
2019-05-11T08:42:22.206Z,95.06
2019-05-11T08:43:22.112Z,95.47
2019-05-11T08:44:22.103Z,96.08
2019-05-11T08:45:24.735Z,94.45
2019-05-11T08:46:22.071Z,95.06
2019-05-11T08:47:22.083Z,96.34
2019-05-11T08:48:22.048Z,95.94
2019-05-11T08:49:22.042Z,96.14
2019-05-11T08:50:22.031Z,96.55
2019-05-11T08:51:22.016Z,96.04
2019-05-11T08:52:22.023Z,96.04
2019-05-11T08:53:21.995Z,96.14
2019-05-11T08:54:22.010Z,95.84
2019-05-11T08:55:21.975Z,96.25
2019-05-11T08:56:21.965Z,96.14
2019-05-11T08:57:21.997Z,95.53
2019-05-11T08:58:21.956Z,96.25
2019-05-11T08:59:21.935Z,96.14
2019-05-11T09:00:21.919Z,96.66
2019-05-11T09:01:21.906Z,96.66
2019-05-11T09:02:21.897Z,96.34
2019-05-11T09:03:21.914Z,96.55
2019-05-11T09:04:21.876Z,96.14
2019-05-11T09:05:21.865Z,96.45
2019-05-11T09:06:21.856Z,96.25
2019-05-11T09:07:21.845Z,95.73
2019-05-11T09:08:21.855Z,96.14
2019-05-11T09:09:21.822Z,95.94
2019-05-11T09:10:21.809Z,95.94
2019-05-11T09:11:21.799Z,93.99
2019-05-11T09:12:21.794Z,94.81
2019-05-11T09:13:21.799Z,95.12
2019-05-11T09:14:21.766Z,94.92
2019-05-11T09:15:35.973Z,94.71
2019-05-11T09:16:22.753Z,95.53
2019-05-11T09:17:21.739Z,96.14
2019-05-11T09:18:21.723Z,96.04
2019-05-11T09:19:21.739Z,95.84
2019-05-11T09:20:21.702Z,95.32
2019-05-11T09:21:21.694Z,95.32
2019-05-11T09:22:21.682Z,96.04
2019-05-11T09:23:33.482Z,95.02
2019-05-11T09:24:22.680Z,95.43
2019-05-11T09:25:21.649Z,95.32
2019-05-11T09:26:21.640Z,96.25
2019-05-11T09:27:21.626Z,96.14
2019-05-11T09:28:21.615Z,95.43
2019-05-11T09:29:21.627Z,95.43
2019-05-11T09:30:21.595Z,94.60
2019-05-11T09:31:21.583Z,94.71
2019-05-11T09:32:21.572Z,94.81
2019-05-11T09:33:21.562Z,93.07
2019-05-11T09:34:21.592Z,94.10
2019-05-11T09:35:21.553Z,94.36
2019-05-11T09:36:21.599Z,94.30
2019-05-11T09:37:21.521Z,92.83
2019-05-11T09:38:21.528Z,93.33
2019-05-11T09:39:21.496Z,94.67
2019-05-11T09:40:21.508Z,94.77
2019-05-11T09:41:21.476Z,93.95
2019-05-11T09:42:21.465Z,93.95
2019-05-11T09:43:21.453Z,93.74
2019-05-11T09:44:21.447Z,93.03
2019-05-11T09:45:21.441Z,92.42
2019-05-11T09:46:21.439Z,93.33
2019-05-11T09:47:21.412Z,94.15
2019-05-11T09:48:21.403Z,92.72
2019-05-11T09:49:21.395Z,93.95
2019-05-11T09:50:21.378Z,93.95
2019-05-11T09:51:21.389Z,94.62
2019-05-11T09:52:21.358Z,94.06
2019-05-11T09:53:21.346Z,94.01
2019-05-11T09:54:21.341Z,94.26
2019-05-11T09:55:21.325Z,93.29
2019-05-11T09:56:21.355Z,93.40
2019-05-11T09:57:21.304Z,94.01
2019-05-11T09:58:21.292Z,94.11
2019-05-11T09:59:21.292Z,93.91
2019-05-11T10:00:21.275Z,94.26
2019-05-11T10:01:21.260Z,94.11
2019-05-11T10:02:21.325Z,93.91
2019-05-11T10:03:21.239Z,94.21
2019-05-11T10:04:21.232Z,92.93
2019-05-11T10:05:21.216Z,92.78
2019-05-11T10:06:21.205Z,92.68
2019-05-11T10:07:21.227Z,92.99
2019-05-11T10:08:21.197Z,93.29
2019-05-11T10:09:21.173Z,92.78
2019-05-11T10:10:21.162Z,92.27
2019-05-11T10:11:21.152Z,92.17
2019-05-11T10:12:21.142Z,92.23
2019-05-11T10:13:21.154Z,93.86
2019-05-11T10:14:21.119Z,94.17
2019-05-11T10:15:21.107Z,94.33
2019-05-11T10:16:21.097Z,93.35
2019-05-11T10:17:21.094Z,92.84
2019-05-11T10:18:24.125Z,92.69
2019-05-11T10:19:21.082Z,94.53
2019-05-11T10:20:21.055Z,94.38
2019-05-11T10:21:21.043Z,92.76
2019-05-11T10:22:21.033Z,92.24
2019-05-11T10:23:21.023Z,92.04
2019-05-11T10:24:21.034Z,92.00
2019-05-11T10:25:20.999Z,92.10
2019-05-11T10:26:21.003Z,90.36
2019-05-11T10:27:20.978Z,91.39
2019-05-11T10:28:20.967Z,91.55
2019-05-11T10:29:20.976Z,91.75
2019-05-11T10:30:20.947Z,89.71
2019-05-11T10:31:20.942Z,86.15
2019-05-11T10:32:20.933Z,88.65
2019-05-11T10:33:20.916Z,88.65
2019-05-11T10:34:20.928Z,89.63
2019-05-11T10:35:20.898Z,88.61
2019-05-11T10:36:20.880Z,87.90
2019-05-11T10:37:20.878Z,88.06
2019-05-11T10:38:20.861Z,89.48
2019-05-11T10:39:20.850Z,88.06
2019-05-11T10:40:20.863Z,87.81
2019-05-11T10:41:20.833Z,86.80
2019-05-11T10:42:20.818Z,87.51
2019-05-11T10:43:20.806Z,86.19
2019-05-11T10:44:20.801Z,82.93
2019-05-11T10:45:20.806Z,82.93
2019-05-11T10:46:23.601Z,85.06
2019-05-11T10:47:20.763Z,83.74
2019-05-11T10:48:20.754Z,81.60
2019-05-11T10:49:23.773Z,84.25
2019-05-11T10:50:20.764Z,84.76
2019-05-11T10:51:20.721Z,84.56
2019-05-11T10:52:20.708Z,83.81
2019-05-11T10:53:20.710Z,83.81
2019-05-11T10:54:20.698Z,83.81
2019-05-11T10:55:20.679Z,82.68
2019-05-11T10:56:20.686Z,84.17
2019-05-11T10:57:20.655Z,85.64
2019-05-11T10:58:20.647Z,82.04
2019-05-11T10:59:20.633Z,81.93
2019-05-11T11:00:20.655Z,80.41
2019-05-11T11:01:20.617Z,81.12
2019-05-11T11:02:20.602Z,82.45
2019-05-11T11:03:20.601Z,80.35
2019-05-11T11:04:20.590Z,80.24
2019-05-11T11:05:20.567Z,82.18
2019-05-11T11:06:20.588Z,81.26
2019-05-11T11:07:20.552Z,80.65
2019-05-11T11:08:20.535Z,79.43
2019-05-11T11:09:20.523Z,81.26
2019-05-11T11:10:20.514Z,80.08
2019-05-11T11:11:20.524Z,79.98
2019-05-11T11:12:20.495Z,80.69
2019-05-11T11:13:20.481Z,80.99
2019-05-11T11:14:20.475Z,80.90
2019-05-11T11:15:20.477Z,80.79
2019-05-11T11:16:35.498Z,81.10
2019-05-11T11:17:21.439Z,80.79
2019-05-11T11:18:20.428Z,81.67
2019-05-11T11:19:20.418Z,81.87
2019-05-11T11:20:20.419Z,80.96
2019-05-11T11:21:22.927Z,80.85
2019-05-11T11:22:35.866Z,80.55
2019-05-11T11:23:21.373Z,79.63
2019-05-11T11:24:20.366Z,76.18
2019-05-11T11:25:20.350Z,76.31
2019-05-11T11:26:20.345Z,77.74
2019-05-11T11:27:20.359Z,76.52
2019-05-11T11:28:20.320Z,76.72
2019-05-11T11:29:20.310Z,78.76
2019-05-11T11:30:20.298Z,76.86
2019-05-11T11:31:20.289Z,78.59
2019-05-11T11:32:20.321Z,79.88
2019-05-11T11:33:20.266Z,79.57
2019-05-11T11:34:20.254Z,80.79
2019-05-11T11:35:20.247Z,80.38
2019-05-11T11:36:20.243Z,80.99
2019-05-11T11:37:20.225Z,80.69
2019-05-11T11:38:20.300Z,83.40
2019-05-11T11:39:20.205Z,83.46
2019-05-11T11:40:20.194Z,82.20
2019-05-11T11:41:20.180Z,79.66
2019-05-11T11:42:20.178Z,78.24
2019-05-11T11:43:20.175Z,80.47
2019-05-11T11:44:20.150Z,80.54
2019-05-11T11:45:20.139Z,79.83
2019-05-11T11:46:20.127Z,80.54
2019-05-11T11:47:21.687Z,78.61
2019-05-11T11:48:20.120Z,79.05
2019-05-11T11:49:20.092Z,79.32
2019-05-11T11:50:20.080Z,79.52
2019-05-11T11:51:20.071Z,77.22
2019-05-11T11:52:20.064Z,79.56
2019-05-11T11:53:20.089Z,79.19
2019-05-11T11:54:20.075Z,78.58
2019-05-11T11:55:20.026Z,78.99
2019-05-11T11:56:20.020Z,78.08
2019-05-11T11:57:20.006Z,79.19
2019-05-11T11:58:23.801Z,80.37
2019-05-11T11:59:20.035Z,79.86
2019-05-11T12:00:19.986Z,77.26
2019-05-11T12:01:19.960Z,77.77
2019-05-11T12:02:19.950Z,77.47
2019-05-11T12:03:19.939Z,79.19
2019-05-11T12:04:19.929Z,80.11
2019-05-11T12:05:19.943Z,78.99
2019-05-11T12:06:19.907Z,76.55
2019-05-11T12:07:19.897Z,75.84
2019-05-11T12:08:19.898Z,76.48
2019-05-11T12:09:19.875Z,79.33
2019-05-11T12:10:19.886Z,79.19
2019-05-11T12:11:19.860Z,80.41
2019-05-11T12:12:19.843Z,79.60
2019-05-11T12:13:19.831Z,77.70
2019-05-11T12:14:19.823Z,76.18
2019-05-11T12:15:19.810Z,76.28
2019-05-11T12:16:19.817Z,77.29
2019-05-11T12:17:19.801Z,76.59
2019-05-11T12:18:19.779Z,76.62
2019-05-11T12:19:19.770Z,78.66
2019-05-11T12:20:19.779Z,78.25
2019-05-11T12:21:19.789Z,77.84
2019-05-11T12:22:19.734Z,76.01
2019-05-11T12:23:19.725Z,77.03
2019-05-11T12:24:19.713Z,77.74
2019-05-11T12:25:19.703Z,76.52
2019-05-11T12:26:19.702Z,75.81
2019-05-11T12:27:19.708Z,77.23
2019-05-11T12:28:19.670Z,77.94
2019-05-11T12:29:19.665Z,77.64
2019-05-11T12:30:19.652Z,76.72
2019-05-11T12:31:19.637Z,77.40
2019-05-11T12:32:19.654Z,78.11
2019-05-11T12:33:19.616Z,76.68
2019-05-11T12:34:19.605Z,76.14
2019-05-11T12:35:19.596Z,76.25
2019-05-11T12:36:19.584Z,76.41
2019-05-11T12:37:21.998Z,76.72
2019-05-11T12:38:19.582Z,76.61
2019-05-11T12:39:19.553Z,75.90
2019-05-11T12:40:19.542Z,74.79
2019-05-11T12:41:19.529Z,74.88
2019-05-11T12:42:19.520Z,75.09
2019-05-11T12:43:22.471Z,73.50
2019-05-11T12:44:19.511Z,72.17
2019-05-11T12:45:19.489Z,73.91
2019-05-11T12:46:19.475Z,74.72
2019-05-11T12:47:24.808Z,75.53
2019-05-11T12:48:20.479Z,74.96
2019-05-11T12:49:19.443Z,73.54
2019-05-11T12:50:19.437Z,74.35
2019-05-11T12:51:19.427Z,74.04
2019-05-11T12:52:19.412Z,74.55